Terminal Aerodrome Forecast
Issued by NWS Billings, MT

Home | Current Version | Previous Version | Graphics & Text | Print | Product List | Glossary On
Versions: 1 2 3 4 5 6 7 8 9 10 11 12 13 14 15 16 17 18 19 20 21 22 23 24 25 26 27 28 29 30 31 32 33 34 35 36
709
FTUS45 KBYZ 302118 AAB
TAFMLS
TAF AMD
KMLS 302118Z 3021/3118 33020G30KT P6SM VCTS FEW012 SCT035CB BKN070
      TEMPO 3021/3023 2SM -TSRA OVC040CB
     FM310300 29012KT P6SM FEW070 SCT150
     FM310900 27018G27KT P6SM VCSH FEW020 BKN040=

USA.gov is the U.S. government's official web portal to all federal, state and local government web resources and services.